Time;durP1;ratioP1;P1;durP2;ratioP2;P2;SDS_P1;SDS_P2;PMS_P1;PMS_P2;Temp;Humidity;BMP_temperature;BMP_pressure;BME280_temperature;BME280_humidity;BME280_pressure;Samples;Min_cycle;Max_cycle;Signal;HPM_P1;HPM_P2
2022/07/13 00:02:15;;;;;;;5.20;4.57;;;20.60;99.90;;;;;;5087407;28;19916;-46
2022/07/13 00:04:41;;;;;;;5.53;5.03;;;20.60;99.90;;;;;;5084421;28;20101;-46
2022/07/13 00:07:06;;;;;;;;;;;20.60;99.90;;;;;;5088686;28;20044;-48
2022/07/13 00:09:32;;;;;;;5.38;4.88;;;20.50;99.90;;;;;;5091903;28;19923;-46
2022/07/13 00:11:57;;;;;;;;;;;20.60;99.90;;;;;;5088992;28;20417;-46
2022/07/13 00:14:23;;;;;;;5.93;5.20;;;20.60;99.90;;;;;;5090319;28;20341;-46
2022/07/13 00:16:48;;;;;;;;;;;20.60;99.90;;;;;;5083472;28;20040;-48
2022/07/13 00:19:14;;;;;;;5.10;4.70;;;20.60;99.90;;;;;;5088616;28;19942;-48
2022/07/13 00:21:40;;;;;;;;;;;20.60;99.90;;;;;;5085437;28;20063;-48
2022/07/13 00:24:05;;;;;;;5.30;4.97;;;20.60;99.90;;;;;;5072929;28;19917;-45
2022/07/13 00:26:31;;;;;;;;;;;20.60;99.90;;;;;;5086732;28;20047;-47
2022/07/13 00:28:56;;;;;;;6.68;5.97;;;20.60;99.90;;;;;;5071928;28;20395;-47
2022/07/13 00:31:22;;;;;;;;;;;20.60;99.90;;;;;;5075056;28;20048;-51
2022/07/13 00:33:47;;;;;;;5.25;4.70;;;20.60;99.90;;;;;;5075030;28;19920;-50
2022/07/13 00:36:13;;;;;;;;;;;20.60;99.90;;;;;;5087011;28;20038;-46
2022/07/13 00:38:38;;;;;;;5.85;5.35;;;20.60;99.90;;;;;;5076055;28;20019;-47
2022/07/13 00:41:05;;;;;;;;;;;20.60;99.90;;;;;;5076166;28;20039;-46
2022/07/13 00:43:31;;;;;;;9.55;5.35;;;20.60;99.90;;;;;;5070854;28;20335;-50
2022/07/13 00:45:56;;;;;;;6.07;5.55;;;20.60;99.90;;;;;;5076396;28;20047;-51
2022/07/13 00:48:22;;;;;;;;;;;20.60;99.90;;;;;;5076638;28;20412;-45
2022/07/13 00:50:49;;;;;;;6.10;5.60;;;20.70;99.90;;;;;;5082295;28;20386;-47
2022/07/13 00:53:16;;;;;;;6.07;5.50;;;20.70;99.90;;;;;;5087572;28;20036;-52
2022/07/13 00:55:43;;;;;;;6.82;5.57;;;20.70;99.90;;;;;;5073705;28;20036;-45
2022/07/13 00:58:09;;;;;;;7.78;5.85;;;20.70;99.90;;;;;;5087619;28;20101;-47
2022/07/13 01:00:36;;;;;;;;;;;20.60;99.90;;;;;;5089282;28;20221;-46
2022/07/13 01:03:02;;;;;;;6.47;5.10;;;20.70;99.90;;;;;;5074355;28;19927;-47
2022/07/13 01:05:28;;;;;;;7.28;5.10;;;20.70;99.90;;;;;;5078721;28;20036;-45
2022/07/13 01:07:54;;;;;;;;;;;20.70;99.90;;;;;;5083456;28;20098;-48
2022/07/13 01:10:20;;;;;;;7.45;5.80;;;20.70;99.90;;;;;;5079224;28;20199;-46
2022/07/13 01:12:45;;;;;;;;;;;20.60;99.90;;;;;;5076577;28;20115;-47
2022/07/13 01:15:11;;;;;;;7.47;5.93;;;20.70;99.90;;;;;;5070905;28;19952;-46
2022/07/13 01:17:37;;;;;;;;;;;20.70;99.90;;;;;;5075366;28;20040;-46
2022/07/13 01:20:04;;;;;;;8.57;5.97;;;20.70;99.90;;;;;;5081595;28;19973;-46
2022/07/13 01:22:38;;;;;;;6.90;6.40;;;20.60;99.90;;;;;;5074481;28;20049;-47
2022/07/13 01:25:04;;;;;;;8.65;6.47;;;20.70;99.90;;;;;;5070920;28;20048;-46
2022/07/13 01:27:32;;;;;;;8.27;7.50;;;20.70;99.90;;;;;;5081031;28;20078;-49
2022/07/13 01:29:58;;;;;;;7.88;6.43;;;20.70;99.90;;;;;;5072448;28;20053;-46
2022/07/13 01:32:23;;;;;;;;;;;20.60;99.90;;;;;;5080602;28;20048;-50
2022/07/13 01:34:49;;;;;;;8.73;7.25;;;20.70;99.90;;;;;;5072826;28;19923;-49
2022/07/13 01:37:15;;;;;;;;;;;20.70;99.90;;;;;;5083192;28;20531;-45
2022/07/13 01:39:41;;;;;;;17.70;7.05;;;20.70;99.90;;;;;;5086833;28;20015;-46
2022/07/13 01:42:06;;;;;;;;;;;20.70;99.90;;;;;;5073682;28;20227;-45
2022/07/13 01:44:32;;;;;;;8.32;7.63;;;20.60;99.90;;;;;;5073097;28;19916;-49
2022/07/13 01:46:58;;;;;;;;;;;20.60;99.90;;;;;;5084304;28;20149;-47
2022/07/13 01:49:23;;;;;;;7.80;7.10;;;20.60;99.90;;;;;;5076353;28;19923;-47
2022/07/13 01:51:49;;;;;;;;;;;20.60;99.90;;;;;;5072185;28;20063;-45
2022/07/13 01:54:14;;;;;;;8.80;7.93;;;20.60;99.90;;;;;;5074892;28;19920;-46
2022/07/13 01:56:40;;;;;;;;;;;20.60;99.90;;;;;;5074783;28;20131;-50
2022/07/13 01:59:05;;;;;;;7.35;6.68;;;20.60;99.90;;;;;;5072879;28;19993;-47
2022/07/13 02:01:31;;;;;;;;;;;20.50;99.90;;;;;;5088213;28;20040;-48
2022/07/13 02:03:56;;;;;;;8.82;7.50;;;20.50;99.90;;;;;;5085665;28;19927;-46
2022/07/13 02:06:22;;;;;;;;;;;20.50;99.90;;;;;;5074264;28;20469;-47
2022/07/13 02:08:47;;;;;;;10.20;8.52;;;20.50;99.90;;;;;;5075758;28;20015;-46
2022/07/13 02:11:17;;;;;;;;;;;20.50;99.90;;;;;;5074792;28;20032;-47
2022/07/13 02:13:46;;;;;;;8.73;7.68;;;20.50;99.90;;;;;;5089748;28;20297;-45
2022/07/13 02:16:13;;;;;;;11.65;7.80;;;20.50;99.90;;;;;;5074077;28;20075;-50
2022/07/13 02:18:39;;;;;;;10.00;8.18;;;20.50;99.90;;;;;;5080041;28;20404;-46
2022/07/13 02:21:05;;;;;;;9.80;7.95;;;20.50;99.90;;;;;;5075873;28;20041;-46
2022/07/13 02:23:31;;;;;;;8.43;7.72;;;20.50;99.90;;;;;;5076965;28;20126;-50
2022/07/13 02:25:56;;;;;;;10.55;9.50;;;20.50;99.90;;;;;;5089873;28;20036;-47
2022/07/13 02:28:22;;;;;;;;;;;20.50;99.90;;;;;;5074299;28;20040;-46
2022/07/13 02:30:47;;;;;;;9.13;8.15;;;20.50;99.90;;;;;;5084587;28;19921;-46
2022/07/13 02:33:13;;;;;;;;;;;20.50;99.90;;;;;;5079471;28;20036;-47
2022/07/13 02:35:38;;;;;;;10.20;9.10;;;20.50;99.90;;;;;;5091690;28;19916;-46
2022/07/13 02:38:04;;;;;;;;;;;20.50;99.90;;;;;;5080703;28;20578;-46
2022/07/13 02:40:29;;;;;;;10.85;9.75;;;20.60;99.90;;;;;;5079774;28;19920;-46
2022/07/13 02:42:55;;;;;;;;;;;20.60;99.90;;;;;;5071798;28;20063;-46
2022/07/13 02:45:20;;;;;;;8.80;8.00;;;20.60;99.90;;;;;;5080919;28;19931;-47
2022/07/13 02:47:46;;;;;;;;;;;20.50;99.90;;;;;;5073059;28;20040;-50
2022/07/13 02:50:12;;;;;;;10.13;8.68;;;20.50;99.90;;;;;;5077165;28;20407;-47
2022/07/13 02:52:38;;;;;;;;;;;20.50;99.90;;;;;;5092206;28;20408;-45
2022/07/13 02:55:03;;;;;;;10.50;9.35;;;20.50;99.90;;;;;;5091688;28;20011;-46
2022/07/13 02:57:29;;;;;;;;;;;20.50;99.90;;;;;;5090748;28;20066;-47
2022/07/13 02:59:54;;;;;;;10.02;8.88;;;20.50;99.90;;;;;;5088785;28;20405;-48
2022/07/13 03:02:20;;;;;;;;;;;20.50;99.90;;;;;;5082582;28;20029;-50
2022/07/13 03:04:46;;;;;;;10.55;9.23;;;20.50;99.90;;;;;;5082023;28;20069;-47
2022/07/13 03:07:11;;;;;;;;;;;20.50;99.90;;;;;;5073675;28;20036;-49
2022/07/13 03:09:37;;;;;;;9.55;8.60;;;20.50;99.90;;;;;;5072520;28;20383;-48
2022/07/13 03:12:02;;;;;;;;;;;20.50;99.90;;;;;;5080923;28;20119;-50
2022/07/13 03:14:28;;;;;;;8.98;8.15;;;20.50;99.90;;;;;;5091560;28;19916;-46
2022/07/13 03:16:53;;;;;;;9.82;8.95;;;20.50;99.90;;;;;;5076434;28;20414;-50
2022/07/13 03:19:19;;;;;;;;;;;20.50;99.90;;;;;;5073578;28;20492;-48
2022/07/13 03:21:44;;;;;;;12.93;9.20;;;20.50;99.90;;;;;;5085205;28;20023;-51
2022/07/13 03:24:10;;;;;;;;;;;20.50;99.90;;;;;;5084099;28;20032;-49
2022/07/13 03:26:35;;;;;;;9.43;8.63;;;20.50;99.90;;;;;;5084075;28;20438;-48
2022/07/13 03:29:01;;;;;;;;;;;20.60;99.90;;;;;;5090300;28;20127;-47
2022/07/13 03:31:27;;;;;;;11.80;8.18;;;20.50;99.90;;;;;;5079880;28;19916;-48
2022/07/13 03:33:53;;;;;;;;;;;20.50;99.90;;;;;;5071875;28;20068;-50
2022/07/13 03:36:18;;;;;;;8.32;7.50;;;20.60;99.90;;;;;;5079609;28;19989;-47
2022/07/13 03:38:44;;;;;;;8.30;7.60;;;20.50;99.90;;;;;;5087403;28;20485;-49
2022/07/13 03:41:09;;;;;;;;;;;20.50;99.90;;;;;;5077149;28;20681;-47
2022/07/13 03:43:35;;;;;;;12.48;9.25;;;20.50;99.90;;;;;;5083950;28;20010;-49
2022/07/13 03:46:00;;;;;;;;;;;20.50;99.90;;;;;;5085450;28;20027;-46
2022/07/13 03:48:26;;;;;;;10.43;7.65;;;20.50;99.90;;;;;;5071525;28;19975;-49
2022/07/13 03:50:52;;;;;;;;;;;20.50;99.90;;;;;;5076710;28;20400;-50
2022/07/13 03:53:17;;;;;;;8.32;7.00;;;20.50;99.90;;;;;;5085651;28;20297;-48
2022/07/13 03:55:43;;;;;;;;;;;20.50;99.90;;;;;;5082718;28;20048;-47
2022/07/13 03:58:10;;;;;;;11.85;6.75;;;20.50;99.90;;;;;;5081520;28;20434;-50
2022/07/13 04:00:36;;;;;;;7.65;6.82;;;20.50;99.90;;;;;;5071481;28;20067;-48
2022/07/13 04:03:02;;;;;;;7.32;6.57;;;20.60;99.90;;;;;;5081746;28;20089;-47
2022/07/13 04:05:27;;;;;;;6.80;5.68;;;20.50;99.90;;;;;;5084730;28;20427;-48
2022/07/13 04:07:53;;;;;;;7.97;6.95;;;20.50;99.90;;;;;;5081109;28;20044;-48
2022/07/13 04:10:18;;;;;;;;;;;20.50;99.90;;;;;;5084245;28;20512;-47
2022/07/13 04:12:48;;;;;;;8.88;8.00;;;20.60;99.90;;;;;;5075535;28;19943;-48
2022/07/13 04:15:15;;;;;;;8.60;7.75;;;20.50;99.90;;;;;;5086256;28;20366;-47
2022/07/13 04:17:42;;;;;;;8.25;7.47;;;20.50;99.90;;;;;;5074254;28;20154;-47
2022/07/13 04:20:11;;;;;;;7.97;7.00;;;20.60;99.90;;;;;;5073128;28;20047;-48
2022/07/13 04:22:36;;;;;;;8.00;7.20;;;20.50;99.90;;;;;;5075132;28;20051;-48
2022/07/13 04:25:03;;;;;;;7.68;6.97;;;20.50;99.90;;;;;;5088108;28;20040;-45
2022/07/13 04:27:29;;;;;;;6.80;6.28;;;20.50;99.90;;;;;;5081730;28;20036;-49
2022/07/13 04:29:54;;;;;;;8.40;6.75;;;20.50;99.90;;;;;;5075084;28;20477;-49
2022/07/13 04:32:20;;;;;;;6.88;6.32;;;20.50;99.90;;;;;;5088195;28;20111;-48
2022/07/13 04:34:45;;;;;;;;;;;20.50;99.90;;;;;;5087951;28;20055;-50
2022/07/13 04:37:11;;;;;;;5.93;5.28;;;20.50;99.90;;;;;;5078881;28;20448;-46
2022/07/13 04:39:40;;;;;;;;;;;20.50;99.90;;;;;;5089449;28;20044;-49
2022/07/13 04:42:05;;;;;;;5.45;4.93;;;20.50;99.90;;;;;;5071106;28;20370;-46
2022/07/13 04:44:31;;;;;;;7.28;5.05;;;20.50;99.90;;;;;;5078180;28;20115;-48
2022/07/13 04:46:56;;;;;;;;;;;20.50;99.90;;;;;;5077280;28;20082;-51
2022/07/13 04:49:22;;;;;;;6.03;4.47;;;20.60;99.90;;;;;;5077220;28;19924;-50
2022/07/13 04:51:48;;;;;;;;;;;20.60;99.90;;;;;;5081826;28;20040;-50
2022/07/13 04:54:17;;;;;;;5.55;4.82;;;20.60;99.90;;;;;;5073962;28;19939;-47
2022/07/13 04:56:43;;;;;;;4.57;4.05;;;20.60;99.90;;;;;;5079637;28;20577;-46
2022/07/13 04:59:08;;;;;;;5.22;4.28;;;20.60;99.90;;;;;;5076985;28;20119;-46
2022/07/13 05:01:33;;;;;;;;;;;20.60;99.90;;;;;;5085869;28;20082;-48
2022/07/13 05:03:59;;;;;;;3.80;3.50;;;20.60;99.90;;;;;;5087128;28;20384;-49
2022/07/13 05:06:25;;;;;;;;;;;20.60;99.90;;;;;;5082389;28;20059;-49
2022/07/13 05:08:50;;;;;;;4.40;4.00;;;20.60;99.90;;;;;;5071938;28;19920;-50
2022/07/13 05:11:16;;;;;;;;;;;20.60;99.90;;;;;;5078978;28;20556;-48
2022/07/13 05:13:41;;;;;;;3.85;3.53;;;20.60;99.90;;;;;;5086934;28;20312;-45
2022/07/13 05:16:07;;;;;;;;;;;20.60;99.90;;;;;;5077244;28;20063;-46
2022/07/13 05:18:33;;;;;;;4.35;3.05;;;20.60;99.90;;;;;;5090611;28;19916;-49
2022/07/13 05:20:59;;;;;;;;;;;20.60;99.90;;;;;;5083042;28;20066;-49
2022/07/13 05:23:24;;;;;;;2.95;2.72;;;20.60;99.90;;;;;;5085188;28;19924;-50
2022/07/13 05:25:50;;;;;;;;;;;20.60;99.90;;;;;;5080556;28;20082;-46
2022/07/13 05:28:15;;;;;;;4.88;2.70;;;20.60;99.90;;;;;;5073607;28;19995;-48
2022/07/13 05:30:41;;;;;;;;;;;20.60;99.90;;;;;;5077634;28;20490;-48
2022/07/13 05:33:06;;;;;;;2.83;2.40;;;20.60;99.90;;;;;;5077682;28;20329;-48
2022/07/13 05:35:32;;;;;;;;;;;20.60;99.90;;;;;;5085369;28;20040;-47
2022/07/13 05:37:57;;;;;;;6.38;3.15;;;20.60;99.90;;;;;;5071600;28;20363;-46
2022/07/13 05:40:23;;;;;;;;;;;20.70;99.90;;;;;;5078423;28;20097;-48
2022/07/13 05:42:48;;;;;;;3.60;2.17;;;20.70;99.90;;;;;;5072924;28;20385;-47
2022/07/13 05:45:14;;;;;;;;;;;20.70;99.90;;;;;;5080327;28;20512;-48
2022/07/13 05:47:48;;;;;;;5.13;3.17;;;20.70;99.90;;;;;;5089577;28;20418;-47
2022/07/13 05:50:14;;;;;;;2.78;2.58;;;20.70;99.90;;;;;;5089682;28;20036;-45
2022/07/13 05:52:41;;;;;;;5.15;3.10;;;20.70;99.90;;;;;;5089154;28;20043;-46
2022/07/13 05:55:08;;;;;;;3.35;3.05;;;20.80;99.90;;;;;;5080678;28;20048;-47
2022/07/13 05:57:34;;;;;;;4.15;2.95;;;20.80;99.90;;;;;;5069290;28;20513;-49
2022/07/13 06:00:00;;;;;;;;;;;20.80;99.90;;;;;;5074470;28;20084;-48
2022/07/13 06:02:25;;;;;;;4.80;2.50;;;20.80;99.90;;;;;;5077237;28;20349;-49
2022/07/13 06:04:51;;;;;;;;;;;20.90;99.90;;;;;;5070612;28;20039;-47
2022/07/13 06:07:16;;;;;;;5.20;3.28;;;20.90;99.90;;;;;;5079870;28;20651;-50
2022/07/13 06:09:42;;;;;;;;;;;21.00;99.90;;;;;;5071938;28;20068;-50
2022/07/13 06:12:07;;;;;;;3.47;3.17;;;21.00;99.90;;;;;;5070343;28;19970;-50
2022/07/13 06:14:33;;;;;;;;;;;21.10;99.90;;;;;;5069134;28;20043;-51
2022/07/13 06:16:58;;;;;;;7.60;3.83;;;21.10;99.90;;;;;;5076711;28;20273;-47
2022/07/13 06:19:24;;;;;;;;;;;21.10;99.90;;;;;;5076380;28;20068;-44
2022/07/13 06:21:49;;;;;;;6.45;3.65;;;21.20;99.90;;;;;;5079023;28;19927;-46
2022/07/13 06:24:15;;;;;;;;;;;21.20;99.90;;;;;;5087364;28;20033;-46
2022/07/13 06:26:41;;;;;;;6.85;3.20;;;21.30;99.90;;;;;;5084041;28;19961;-46
2022/07/13 06:29:06;;;;;;;;;;;21.30;99.90;;;;;;5082541;28;20056;-51
2022/07/13 06:31:32;;;;;;;4.15;3.10;;;21.40;99.90;;;;;;5079516;28;19958;-49
2022/07/13 06:33:58;;;;;;;2.67;2.45;;;21.50;99.90;;;;;;5077055;28;20036;-49
2022/07/13 06:36:23;;;;;;;;;;;21.50;99.90;;;;;;5087830;28;20055;-48
2022/07/13 06:38:49;;;;;;;3.30;3.00;;;21.60;99.90;;;;;;5071375;28;19931;-48
2022/07/13 06:41:15;;;;;;;4.72;2.88;;;21.60;99.90;;;;;;5088372;28;20457;-49
2022/07/13 06:43:41;;;;;;;;;;;21.70;99.90;;;;;;5082872;28;20079;-47
2022/07/13 06:46:07;;;;;;;3.20;2.88;;;21.80;99.90;;;;;;5081277;28;19965;-48
2022/07/13 06:48:35;;;;;;;3.17;2.80;;;21.80;99.90;;;;;;5067167;28;20431;-48
2022/07/13 06:51:01;;;;;;;4.07;3.00;;;21.90;99.90;;;;;;5069798;28;20044;-50
2022/07/13 06:53:26;;;;;;;;;;;21.90;99.90;;;;;;5079631;28;20525;-51
2022/07/13 06:55:52;;;;;;;5.35;2.85;;;21.90;99.90;;;;;;5074440;28;19924;-51
2022/07/13 06:58:17;;;;;;;;;;;21.90;99.90;;;;;;5080155;28;20519;-50
2022/07/13 07:00:43;;;;;;;4.35;3.95;;;22.00;99.90;;;;;;5064038;28;19931;-49
2022/07/13 07:03:09;;;;;;;8.85;4.00;;;22.00;99.90;;;;;;5070726;28;20036;-49
2022/07/13 07:05:34;;;;;;;;;;;22.00;99.90;;;;;;5068536;28;20133;-47
2022/07/13 07:08:02;;;;;;;8.65;3.75;;;22.10;99.90;;;;;;5075289;28;19927;-48
2022/07/13 07:10:28;;;;;;;8.20;4.40;;;22.10;99.90;;;;;;5084409;28;20048;-46
2022/07/13 07:12:53;;;;;;;;;;;22.10;99.90;;;;;;5078027;28;20509;-45
2022/07/13 07:15:19;;;;;;;6.57;3.88;;;22.20;99.90;;;;;;5075236;28;19990;-46
2022/07/13 07:17:46;;;;;;;;;;;22.20;99.90;;;;;;5082247;28;20040;-50
2022/07/13 07:20:13;;;;;;;5.00;2.88;;;22.30;99.90;;;;;;5075797;28;20019;-47
2022/07/13 07:22:39;;;;;;;7.07;2.95;;;22.30;99.90;;;;;;5070579;28;20044;-47
2022/07/13 07:25:05;;;;;;;;;;;22.30;99.90;;;;;;5072155;28;20436;-45
2022/07/13 07:27:30;;;;;;;8.45;4.00;;;22.40;99.90;;;;;;5071662;28;19956;-46
2022/07/13 07:29:56;;;;;;;;;;;22.40;99.90;;;;;;5073776;28;20116;-45
2022/07/13 07:32:21;;;;;;;6.78;3.38;;;22.50;99.90;;;;;;5072862;28;19928;-46
2022/07/13 07:34:47;;;;;;;;;;;22.50;99.90;;;;;;5077194;28;20037;-47
2022/07/13 07:37:12;;;;;;;9.90;3.88;;;22.50;99.90;;;;;;5070113;28;19926;-48
2022/07/13 07:39:40;;;;;;;7.13;4.25;;;22.50;99.90;;;;;;5085328;28;20695;-47
2022/07/13 07:42:05;;;;;;;6.00;3.28;;;22.60;99.90;;;;;;5074739;28;20032;-48
2022/07/13 07:44:31;;;;;;;;;;;22.60;99.90;;;;;;5074165;28;20113;-48
2022/07/13 07:46:56;;;;;;;7.43;3.78;;;22.70;99.90;;;;;;5075188;28;20016;-46
2022/07/13 07:49:22;;;;;;;3.70;3.40;;;22.80;99.90;;;;;;5067615;28;20048;-44
2022/07/13 07:51:48;;;;;;;;;;;22.90;99.90;;;;;;5065724;28;20408;-46
2022/07/13 07:54:13;;;;;;;5.28;4.28;;;23.00;99.90;;;;;;5067961;28;19968;-48
2022/07/13 07:56:39;;;;;;;10.70;4.78;;;23.10;99.90;;;;;;5068298;28;20576;-48
2022/07/13 07:59:05;;;;;;;8.68;5.72;;;23.10;99.90;;;;;;5081334;28;20073;-47
2022/07/13 08:01:30;;;;;;;5.07;4.57;;;23.30;99.90;;;;;;5076476;28;20111;-46
2022/07/13 08:03:56;;;;;;;5.60;4.97;;;23.30;99.90;;;;;;5070828;28;20054;-47
2022/07/13 08:06:22;;;;;;;10.55;5.95;;;23.40;99.90;;;;;;5072614;28;20039;-48
2022/07/13 08:08:47;;;;;;;8.10;4.55;;;23.40;99.90;;;;;;5069344;28;20081;-47
2022/07/13 08:11:17;;;;;;;6.15;5.53;;;23.50;99.90;;;;;;5072673;28;20036;-47
2022/07/13 08:13:44;;;;;;;7.40;5.35;;;23.60;99.90;;;;;;5074746;28;20500;-47
2022/07/13 08:16:10;;;;;;;9.18;5.68;;;23.60;99.90;;;;;;5071406;28;20382;-45
2022/07/13 08:18:36;;;;;;;7.85;5.55;;;23.60;99.90;;;;;;5082549;28;20660;-45
2022/07/13 08:21:01;;;;;;;6.22;5.35;;;23.60;99.90;;;;;;5070569;28;20079;-46
2022/07/13 08:26:13;;;;;;;7.45;5.70;;;23.70;99.90;;;;;;5069289;28;20487;-45
2022/07/13 08:28:39;;;;;;;12.13;4.88;;;23.80;99.90;;;;;;5072859;28;20032;-48
2022/07/13 08:31:05;;;;;;;8.82;6.32;;;23.90;99.90;;;;;;5072065;28;20059;-48
2022/07/13 08:39:00;;;;;;;8.50;5.40;;;24.10;99.90;;;;;;5071722;28;20039;-46
2022/07/13 08:41:25;;;;;;;11.85;6.28;;;24.10;99.90;;;;;;5071071;28;20044;-48
2022/07/13 08:43:51;;;;;;;5.85;5.28;;;24.20;99.90;;;;;;5072600;28;20025;-48
2022/07/13 08:46:19;;;;;;;9.77;8.07;;;24.30;99.90;;;;;;5072107;28;20054;-48
2022/07/13 08:48:49;;;;;;;14.57;7.35;;;24.30;99.90;;;;;;5072715;28;20478;-47
2022/07/13 08:51:18;;;;;;;10.02;6.30;;;24.40;99.90;;;;;;5075692;28;20044;-48
2022/07/13 08:53:44;;;;;;;11.27;6.97;;;24.40;99.90;;;;;;5070448;28;20041;-45
2022/07/13 08:56:10;;;;;;;9.25;7.95;;;24.40;99.90;;;;;;5070476;28;20041;-46
2022/07/13 08:58:37;;;;;;;9.77;7.70;;;24.50;99.90;;;;;;5068309;28;20280;-48
2022/07/13 09:01:02;;;;;;;10.25;7.90;;;24.50;99.90;;;;;;5073974;28;20049;-47
2022/07/13 09:03:33;;;;;;;10.35;7.30;;;24.60;99.90;;;;;;5072743;28;20024;-50
2022/07/13 09:05:59;;;;;;;9.38;7.15;;;24.60;99.90;;;;;;5071288;28;20032;-47
2022/07/13 09:08:24;;;;;;;8.65;7.70;;;24.70;99.90;;;;;;5072543;28;20570;-46
2022/07/13 09:10:53;;;;;;;7.10;6.35;;;24.70;99.90;;;;;;5072397;28;20036;-47
2022/07/13 09:13:55;;;;;;;25.60;9.30;;;24.70;99.90;;;;;;5072224;28;20149;-47
2022/07/13 09:16:27;;;;;;;24.80;8.52;;;24.90;99.90;;;;;;5009122;28;20173;-46
2022/07/13 09:18:59;;;;;;;7.68;6.85;;;24.90;99.90;;;;;;5009696;28;20061;-47
2022/07/13 09:21:25;;;;;;;9.77;6.70;;;24.90;99.90;;;;;;5011179;28;20037;-48
2022/07/13 09:23:55;;;;;;;9.68;6.05;;;25.00;99.90;;;;;;5008527;28;20129;-47
2022/07/13 09:26:21;;;;;;;7.95;6.25;;;25.10;99.90;;;;;;5009793;28;20056;-47
2022/07/13 09:28:49;;;;;;;9.57;6.60;;;25.10;99.90;;;;;;5013953;28;20041;-48
2022/07/13 09:31:15;;;;;;;6.95;5.93;;;25.20;99.90;;;;;;5000763;28;20041;-47
2022/07/13 09:33:44;;;;;;;9.70;4.75;;;25.20;99.90;;;;;;5005391;28;20357;-45
2022/07/13 09:36:16;;;;;;;10.15;5.75;;;25.20;99.90;;;;;;5009212;28;20067;-45
2022/07/13 09:38:46;;;;;;;11.63;3.80;;;25.30;99.90;;;;;;5008548;28;20042;-46
2022/07/13 09:41:17;;;;;;;4.00;3.67;;;25.40;99.90;;;;;;5007197;28;20582;-48
2022/07/13 09:46:53;;;;;;;7.03;4.65;;;25.60;99.90;;;;;;5011010;28;20473;-49
2022/07/13 09:49:28;;;;;;;8.50;4.90;;;25.70;99.90;;;;;;5008397;28;20033;-48
2022/07/13 09:51:57;;;;;;;5.30;3.97;;;25.70;99.90;;;;;;5042085;28;20068;-47
2022/07/13 09:54:25;;;;;;;4.88;3.95;;;25.70;99.90;;;;;;5069672;28;20046;-48
2022/07/13 09:56:51;;;;;;;8.88;4.90;;;25.80;99.90;;;;;;5070060;28;20049;-48
2022/07/13 09:59:18;;;;;;;7.00;4.40;;;25.80;99.90;;;;;;5069562;28;20040;-51
2022/07/13 10:01:45;;;;;;;5.47;4.45;;;25.90;99.90;;;;;;5071126;28;20441;-49
2022/07/13 10:04:12;;;;;;;7.60;4.15;;;25.90;99.90;;;;;;5074699;28;20456;-48
2022/07/13 10:06:38;;;;;;;8.00;4.75;;;26.00;99.90;;;;;;5073955;28;20032;-48
2022/07/13 10:09:04;;;;;;;7.07;5.88;;;26.00;99.90;;;;;;5073703;28;20047;-49
2022/07/13 10:11:30;;;;;;;9.75;5.47;;;26.10;99.60;;;;;;5072556;28;20029;-49
2022/07/13 10:13:57;;;;;;;6.00;4.97;;;26.10;99.80;;;;;;5074198;28;20503;-48
2022/07/13 10:16:23;;;;;;;8.10;4.15;;;26.20;99.80;;;;;;5070760;28;20058;-47
2022/07/13 10:18:51;;;;;;;8.90;5.25;;;26.20;99.40;;;;;;5068669;28;20043;-47
2022/07/13 10:21:41;;;;;;;7.82;3.10;;;26.10;99.10;;;;;;5070801;28;20135;-48
2022/07/13 10:24:17;;;;;;;4.85;3.80;;;26.20;99.50;;;;;;5070420;28;20528;-49
2022/07/13 10:26:46;;;;;;;3.47;2.45;;;26.30;99.90;;;;;;5067083;28;20025;-49
2022/07/13 10:29:12;;;;;;;7.90;2.97;;;26.40;99.10;;;;;;5071112;28;20032;-48
2022/07/13 10:31:40;;;;;;;5.15;2.28;;;26.50;99.00;;;;;;5071132;28;20389;-46
2022/07/13 10:34:07;;;;;;;6.47;3.20;;;26.50;99.00;;;;;;5072850;28;20036;-50
2022/07/13 10:36:55;;;;;;;4.85;1.25;;;26.60;99.30;;;;;;5068176;28;20028;-46
2022/07/13 10:39:23;;;;;;;2.85;1.48;;;26.70;97.90;;;;;;5069635;28;20083;-45
2022/07/13 10:42:03;;;;;;;6.75;1.95;;;26.70;98.30;;;;;;5067275;28;20085;-47
2022/07/13 10:44:31;;;;;;;5.65;1.85;;;26.80;97.50;;;;;;5068904;28;20033;-50
2022/07/13 10:46:57;;;;;;;1.13;1.02;;;26.70;97.20;;;;;;5068592;28;20110;-48
2022/07/13 10:49:41;;;;;;;4.28;1.10;;;26.70;97.60;;;;;;5067695;28;20115;-50
2022/07/13 10:52:22;;;;;;;4.75;1.13;;;26.80;95.70;;;;;;5067439;28;20050;-47
2022/07/13 10:55:07;;;;;;;5.38;1.00;;;26.80;95.90;;;;;;5071315;28;20087;-46
2022/07/13 10:57:34;;;;;;;2.33;1.38;;;26.90;96.40;;;;;;5067267;28;20101;-46
2022/07/13 11:00:18;;;;;;;3.03;1.05;;;26.90;96.10;;;;;;5066495;28;20033;-47
2022/07/13 11:02:49;;;;;;;0.85;0.70;;;26.90;95.50;;;;;;5068557;28;20085;-46
2022/07/13 11:05:19;;;;;;;4.60;1.05;;;27.00;95.30;;;;;;5081536;28;20037;-47
2022/07/13 11:07:50;;;;;;;2.38;0.90;;;27.10;95.40;;;;;;5067022;28;20328;-46
2022/07/13 11:10:28;;;;;;;3.25;1.00;;;27.10;95.60;;;;;;5074655;28;20040;-50
2022/07/13 11:12:58;;;;;;;2.17;0.63;;;27.20;94.80;;;;;;5067743;28;20094;-48
2022/07/13 11:15:40;;;;;;;3.30;1.27;;;27.30;95.40;;;;;;5069191;28;20041;-47
2022/07/13 11:18:21;;;;;;;1.08;0.70;;;27.30;95.30;;;;;;5068329;28;20045;-48
2022/07/13 11:21:29;;;;;;;1.85;1.38;;;27.40;93.80;;;;;;5069875;28;20450;-46
2022/07/13 11:26:53;;;;;;;0.60;0.38;;;27.40;93.80;;;;;;5000382;28;20117;-50
2022/07/13 11:29:55;;;;;;;2.35;0.70;;;27.40;94.60;;;;;;5003090;28;20040;-47
2022/07/13 11:32:21;;;;;;;2.65;0.65;;;27.50;92.90;;;;;;5000634;28;20049;-47
2022/07/13 11:34:47;;;;;;;3.33;0.60;;;27.60;94.40;;;;;;5002167;28;20119;-48
2022/07/13 11:37:13;;;;;;;2.47;0.68;;;27.60;92.80;;;;;;5002211;28;20477;-48
2022/07/13 11:39:39;;;;;;;1.00;0.77;;;27.70;93.00;;;;;;4999010;28;20082;-47
2022/07/13 11:42:07;;;;;;;2.45;0.60;;;27.60;93.30;;;;;;5001969;28;20072;-47
2022/07/13 11:44:34;;;;;;;0.70;0.50;;;27.60;93.30;;;;;;5002870;28;20036;-46
2022/07/13 11:47:04;;;;;;;1.10;0.60;;;27.60;93.40;;;;;;4997980;28;20042;-47
2022/07/13 11:49:46;;;;;;;2.03;0.70;;;27.50;93.00;;;;;;5001254;28;20470;-46
2022/07/13 11:52:21;;;;;;;1.58;1.02;;;27.50;92.10;;;;;;5003412;28;20045;-47
2022/07/13 11:54:57;;;;;;;6.32;0.90;;;27.50;92.80;;;;;;4999811;28;20129;-48
2022/07/13 11:57:23;;;;;;;2.65;0.70;;;27.50;93.10;;;;;;5001261;28;20049;-48
2022/07/13 11:59:48;;;;;;;2.28;0.85;;;27.50;92.70;;;;;;5052341;28;20147;-47
2022/07/13 12:02:14;;;;;;;1.27;0.50;;;27.60;92.30;;;;;;5066540;28;20043;-48
2022/07/13 12:04:47;;;;;;;2.33;0.70;;;27.50;92.40;;;;;;5065239;28;20028;-48
2022/07/13 12:07:18;;;;;;;1.25;0.40;;;27.50;91.90;;;;;;5066633;28;20124;-49
2022/07/13 12:09:52;;;;;;;1.70;0.50;;;27.40;90.70;;;;;;5065186;28;20044;-49
2022/07/13 12:12:40;;;;;;;1.33;0.50;;;27.30;90.20;;;;;;5066550;28;20040;-51
2022/07/13 12:15:07;;;;;;;1.67;0.50;;;27.40;90.40;;;;;;5080257;28;20078;-51
2022/07/13 12:17:44;;;;;;;3.47;0.93;;;27.40;91.50;;;;;;5064121;28;20696;-51
2022/07/13 12:20:14;;;;;;;2.28;0.70;;;27.50;91.60;;;;;;5068476;28;20044;-53
2022/07/13 12:22:40;;;;;;;1.10;0.52;;;27.60;91.30;;;;;;5065587;28;20041;-53
2022/07/13 12:25:07;;;;;;;2.90;0.65;;;27.70;91.20;;;;;;5071358;28;20035;-51
2022/07/13 12:27:33;;;;;;;2.97;0.50;;;27.70;90.90;;;;;;5064732;28;20078;-49
2022/07/13 12:30:10;;;;;;;4.40;0.60;;;27.70;91.40;;;;;;5066561;28;20059;-51
2022/07/13 12:32:58;;;;;;;2.35;0.68;;;27.70;91.00;;;;;;5066879;28;20040;-51
2022/07/13 12:35:29;;;;;;;7.70;0.80;;;27.60;90.50;;;;;;5066769;28;20044;-51
2022/07/13 12:37:56;;;;;;;1.40;0.55;;;27.50;91.20;;;;;;5065005;28;20028;-52
2022/07/13 12:40:37;;;;;;;1.38;0.50;;;27.40;91.30;;;;;;5064793;28;20029;-51
2022/07/13 12:43:03;;;;;;;1.92;0.50;;;27.30;91.10;;;;;;5064666;28;20052;-50
2022/07/13 12:45:32;;;;;;;10.18;1.05;;;27.30;92.00;;;;;;5064897;28;20286;-53
2022/07/13 12:47:58;;;;;;;11.13;0.93;;;27.40;91.40;;;;;;5069715;28;20081;-54
2022/07/13 12:50:30;;;;;;;7.55;1.02;;;27.40;91.00;;;;;;5073912;28;20044;-51
2022/07/13 12:52:59;;;;;;;0.75;0.50;;;27.60;90.60;;;;;;5063813;28;20401;-54
2022/07/13 12:55:25;;;;;;;2.53;0.60;;;27.60;90.50;;;;;;5064550;28;20036;-51
2022/07/13 12:57:51;;;;;;;3.58;0.60;;;27.70;90.30;;;;;;5064410;28;20048;-48
2022/07/13 13:00:22;;;;;;;1.75;0.40;;;27.70;90.30;;;;;;5067478;28;20040;-50
2022/07/13 13:02:48;;;;;;;2.97;0.50;;;27.80;89.50;;;;;;5081677;28;20047;-54
2022/07/13 13:05:14;;;;;;;7.28;0.82;;;27.80;89.10;;;;;;5067007;28;20028;-51
2022/07/13 13:07:39;;;;;;;4.03;0.45;;;27.90;89.40;;;;;;5069072;28;20039;-50
2022/07/13 13:10:07;;;;;;;1.98;0.40;;;27.90;88.80;;;;;;5069531;28;20036;-53
2022/07/13 13:12:34;;;;;;;4.90;0.90;;;27.90;88.20;;;;;;5065845;28;20088;-49
2022/07/13 13:14:59;;;;;;;3.05;0.50;;;28.00;89.40;;;;;;5065301;28;20505;-54
2022/07/13 13:17:26;;;;;;;1.98;0.60;;;28.00;90.00;;;;;;5064969;28;20103;-53
2022/07/13 13:19:52;;;;;;;4.15;0.50;;;28.00;90.20;;;;;;5065081;28;20040;-52
2022/07/13 13:22:18;;;;;;;4.07;0.73;;;28.00;90.40;;;;;;5065465;28;20067;-48